sensor_id;sensor_type;location;lat;lon;timestamp;temperature;humidity
1800;DHT22;919;48.274;12.292;2023-12-14T00:02:04;5.90;99.90
1800;DHT22;919;48.274;12.292;2023-12-14T00:04:32;5.90;99.90
1800;DHT22;919;48.274;12.292;2023-12-14T00:06:58;6.00;99.90
1800;DHT22;919;48.274;12.292;2023-12-14T00:09:25;5.90;99.90
1800;DHT22;919;48.274;12.292;2023-12-14T00:11:52;5.90;99.90
1800;DHT22;919;48.274;12.292;2023-12-14T00:14:18;5.90;99.90
1800;DHT22;919;48.274;12.292;2023-12-14T00:16:45;5.90;99.90
1800;DHT22;919;48.274;12.292;2023-12-14T00:19:12;6.00;99.90
1800;DHT22;919;48.274;12.292;2023-12-14T00:21:40;5.90;99.90
1800;DHT22;919;48.274;12.292;2023-12-14T00:24:07;5.90;99.90
1800;DHT22;919;48.274;12.292;2023-12-14T00:26:33;5.90;99.90
1800;DHT22;919;48.274;12.292;2023-12-14T00:29:00;6.00;99.90
1800;DHT22;919;48.274;12.292;2023-12-14T00:31:27;6.00;99.90
1800;DHT22;919;48.274;12.292;2023-12-14T00:33:53;6.00;99.90
1800;DHT22;919;48.274;12.292;2023-12-14T00:36:20;6.00;99.90
1800;DHT22;919;48.274;12.292;2023-12-14T00:38:48;6.00;99.90
1800;DHT22;919;48.274;12.292;2023-12-14T00:41:15;6.00;99.90
1800;DHT22;919;48.274;12.292;2023-12-14T00:43:41;5.90;99.90
1800;DHT22;919;48.274;12.292;2023-12-14T00:46:08;5.90;99.90
1800;DHT22;919;48.274;12.292;2023-12-14T00:48:36;5.90;99.90
1800;DHT22;919;48.274;12.292;2023-12-14T00:51:03;5.80;99.90
1800;DHT22;919;48.274;12.292;2023-12-14T00:53:30;5.80;99.90
1800;DHT22;919;48.274;12.292;2023-12-14T00:55:58;5.80;99.90
1800;DHT22;919;48.274;12.292;2023-12-14T00:58:25;5.80;99.90
1800;DHT22;919;48.274;12.292;2023-12-14T01:00:51;5.80;99.90
1800;DHT22;919;48.274;12.292;2023-12-14T01:03:19;5.80;99.90
1800;DHT22;919;48.274;12.292;2023-12-14T01:05:46;5.90;99.90
1800;DHT22;919;48.274;12.292;2023-12-14T01:08:13;5.90;99.90
1800;DHT22;919;48.274;12.292;2023-12-14T01:10:40;5.90;99.90
1800;DHT22;919;48.274;12.292;2023-12-14T01:13:08;5.90;99.90
1800;DHT22;919;48.274;12.292;2023-12-14T01:15:35;6.00;99.90
1800;DHT22;919;48.274;12.292;2023-12-14T01:18:01;6.00;99.90
1800;DHT22;919;48.274;12.292;2023-12-14T01:20:28;5.90;99.90
1800;DHT22;919;48.274;12.292;2023-12-14T01:22:55;5.90;99.90
1800;DHT22;919;48.274;12.292;2023-12-14T01:25:22;5.80;99.90
1800;DHT22;919;48.274;12.292;2023-12-14T01:27:48;5.90;99.90
1800;DHT22;919;48.274;12.292;2023-12-14T01:30:16;5.90;99.90
1800;DHT22;919;48.274;12.292;2023-12-14T01:32:44;5.90;99.90
1800;DHT22;919;48.274;12.292;2023-12-14T01:35:10;5.90;99.90
1800;DHT22;919;48.274;12.292;2023-12-14T01:37:37;5.90;99.90
1800;DHT22;919;48.274;12.292;2023-12-14T01:40:05;5.80;99.90
1800;DHT22;919;48.274;12.292;2023-12-14T01:42:32;5.80;99.90
1800;DHT22;919;48.274;12.292;2023-12-14T01:44:58;5.80;99.90
1800;DHT22;919;48.274;12.292;2023-12-14T01:47:26;5.80;99.90
1800;DHT22;919;48.274;12.292;2023-12-14T01:49:53;5.80;99.90
1800;DHT22;919;48.274;12.292;2023-12-14T01:52:20;5.80;99.90
1800;DHT22;919;48.274;12.292;2023-12-14T01:54:46;5.80;99.90
1800;DHT22;919;48.274;12.292;2023-12-14T01:57:13;5.80;99.90
1800;DHT22;919;48.274;12.292;2023-12-14T01:59:40;5.80;99.90
1800;DHT22;919;48.274;12.292;2023-12-14T02:02:06;5.80;99.90
1800;DHT22;919;48.274;12.292;2023-12-14T02:04:34;5.80;99.90
1800;DHT22;919;48.274;12.292;2023-12-14T02:07:03;5.80;99.90
1800;DHT22;919;48.274;12.292;2023-12-14T02:09:30;5.80;99.90
1800;DHT22;919;48.274;12.292;2023-12-14T02:11:56;5.70;99.90
1800;DHT22;919;48.274;12.292;2023-12-14T02:14:23;5.80;99.90
1800;DHT22;919;48.274;12.292;2023-12-14T02:16:50;5.70;99.90
1800;DHT22;919;48.274;12.292;2023-12-14T02:19:16;5.70;99.90
1800;DHT22;919;48.274;12.292;2023-12-14T02:21:44;5.70;99.90
1800;DHT22;919;48.274;12.292;2023-12-14T02:24:12;5.70;99.90
1800;DHT22;919;48.274;12.292;2023-12-14T02:26:39;5.60;99.90
1800;DHT22;919;48.274;12.292;2023-12-14T02:29:06;5.70;99.90
1800;DHT22;919;48.274;12.292;2023-12-14T02:31:32;5.70;99.90
1800;DHT22;919;48.274;12.292;2023-12-14T02:33:59;5.70;99.90
1800;DHT22;919;48.274;12.292;2023-12-14T02:36:26;5.60;99.90
1800;DHT22;919;48.274;12.292;2023-12-14T02:38:52;5.60;99.90
1800;DHT22;919;48.274;12.292;2023-12-14T02:41:20;5.60;99.90
1800;DHT22;919;48.274;12.292;2023-12-14T02:43:47;5.60;99.90
1800;DHT22;919;48.274;12.292;2023-12-14T02:46:14;5.60;99.90
1800;DHT22;919;48.274;12.292;2023-12-14T02:48:41;5.60;99.90
1800;DHT22;919;48.274;12.292;2023-12-14T02:51:12;5.60;99.90
1800;DHT22;919;48.274;12.292;2023-12-14T02:53:39;5.60;99.90
1800;DHT22;919;48.274;12.292;2023-12-14T02:56:07;5.60;99.90
1800;DHT22;919;48.274;12.292;2023-12-14T02:58:35;5.60;99.90
1800;DHT22;919;48.274;12.292;2023-12-14T03:01:01;5.60;99.90
1800;DHT22;919;48.274;12.292;2023-12-14T03:03:28;5.70;99.90
1800;DHT22;919;48.274;12.292;2023-12-14T03:05:55;5.60;99.90
1800;DHT22;919;48.274;12.292;2023-12-14T03:08:22;5.60;99.90
1800;DHT22;919;48.274;12.292;2023-12-14T03:10:48;5.60;99.90
1800;DHT22;919;48.274;12.292;2023-12-14T03:13:15;5.60;99.90
1800;DHT22;919;48.274;12.292;2023-12-14T03:15:43;5.60;99.90
1800;DHT22;919;48.274;12.292;2023-12-14T03:18:12;5.60;99.90
1800;DHT22;919;48.274;12.292;2023-12-14T03:20:38;5.60;99.90
1800;DHT22;919;48.274;12.292;2023-12-14T03:23:05;5.60;99.90
1800;DHT22;919;48.274;12.292;2023-12-14T03:25:32;5.60;99.90
1800;DHT22;919;48.274;12.292;2023-12-14T03:27:58;5.60;99.90
1800;DHT22;919;48.274;12.292;2023-12-14T03:30:25;5.60;99.90
1800;DHT22;919;48.274;12.292;2023-12-14T03:32:53;5.60;99.90
1800;DHT22;919;48.274;12.292;2023-12-14T03:35:20;5.60;99.90
1800;DHT22;919;48.274;12.292;2023-12-14T03:37:47;5.60;99.90
1800;DHT22;919;48.274;12.292;2023-12-14T03:40:14;5.60;99.90
1800;DHT22;919;48.274;12.292;2023-12-14T03:42:41;5.60;99.90
1800;DHT22;919;48.274;12.292;2023-12-14T03:45:08;5.60;99.90
1800;DHT22;919;48.274;12.292;2023-12-14T03:47:35;5.60;99.90
1800;DHT22;919;48.274;12.292;2023-12-14T03:50:04;5.60;99.90
1800;DHT22;919;48.274;12.292;2023-12-14T03:52:31;5.60;99.90
1800;DHT22;919;48.274;12.292;2023-12-14T03:54:58;5.60;99.90
1800;DHT22;919;48.274;12.292;2023-12-14T03:57:24;5.60;99.90
1800;DHT22;919;48.274;12.292;2023-12-14T03:59:51;5.60;99.90
1800;DHT22;919;48.274;12.292;2023-12-14T04:02:18;5.60;99.90
1800;DHT22;919;48.274;12.292;2023-12-14T04:04:45;5.60;99.90
1800;DHT22;919;48.274;12.292;2023-12-14T04:07:14;5.60;99.90
1800;DHT22;919;48.274;12.292;2023-12-14T04:09:40;5.60;99.90
1800;DHT22;919;48.274;12.292;2023-12-14T04:12:07;5.60;99.90
1800;DHT22;919;48.274;12.292;2023-12-14T04:14:34;5.70;99.90
1800;DHT22;919;48.274;12.292;2023-12-14T04:17:01;5.70;99.90
1800;DHT22;919;48.274;12.292;2023-12-14T04:19:27;5.70;99.90
1800;DHT22;919;48.274;12.292;2023-12-14T04:21:54;5.60;99.90
1800;DHT22;919;48.274;12.292;2023-12-14T04:24:22;5.60;99.90
1800;DHT22;919;48.274;12.292;2023-12-14T04:26:49;5.70;99.90
1800;DHT22;919;48.274;12.292;2023-12-14T04:29:15;5.70;99.90
1800;DHT22;919;48.274;12.292;2023-12-14T04:31:42;5.70;99.90
1800;DHT22;919;48.274;12.292;2023-12-14T04:34:09;5.60;99.90
1800;DHT22;919;48.274;12.292;2023-12-14T04:36:40;5.70;99.90
1800;DHT22;919;48.274;12.292;2023-12-14T04:39:07;5.70;99.90
1800;DHT22;919;48.274;12.292;2023-12-14T04:41:35;5.70;99.90
1800;DHT22;919;48.274;12.292;2023-12-14T04:44:01;5.60;99.90
1800;DHT22;919;48.274;12.292;2023-12-14T04:46:28;5.70;99.90
1800;DHT22;919;48.274;12.292;2023-12-14T04:48:55;5.60;99.90
1800;DHT22;919;48.274;12.292;2023-12-14T04:51:22;5.60;99.90
1800;DHT22;919;48.274;12.292;2023-12-14T04:53:48;5.60;99.90
1800;DHT22;919;48.274;12.292;2023-12-14T04:56:15;5.70;99.90
1800;DHT22;919;48.274;12.292;2023-12-14T04:58:43;5.70;99.90
1800;DHT22;919;48.274;12.292;2023-12-14T05:01:09;5.60;99.90
1800;DHT22;919;48.274;12.292;2023-12-14T05:03:37;5.60;99.90
1800;DHT22;919;48.274;12.292;2023-12-14T05:06:04;5.60;99.90
1800;DHT22;919;48.274;12.292;2023-12-14T05:08:31;5.60;99.90
1800;DHT22;919;48.274;12.292;2023-12-14T05:10:58;5.60;99.90
1800;DHT22;919;48.274;12.292;2023-12-14T05:13:24;5.60;99.90
1800;DHT22;919;48.274;12.292;2023-12-14T05:15:52;5.60;99.90
1800;DHT22;919;48.274;12.292;2023-12-14T05:18:19;5.60;99.90
1800;DHT22;919;48.274;12.292;2023-12-14T05:20:46;5.60;99.90
1800;DHT22;919;48.274;12.292;2023-12-14T05:23:13;5.60;99.90
1800;DHT22;919;48.274;12.292;2023-12-14T05:25:39;5.60;99.90
1800;DHT22;919;48.274;12.292;2023-12-14T05:28:06;5.60;99.90
1800;DHT22;919;48.274;12.292;2023-12-14T05:30:33;5.60;99.90
1800;DHT22;919;48.274;12.292;2023-12-14T05:33:01;5.60;99.90
1800;DHT22;919;48.274;12.292;2023-12-14T05:35:28;5.60;99.90
1800;DHT22;919;48.274;12.292;2023-12-14T05:37:54;5.60;99.90
1800;DHT22;919;48.274;12.292;2023-12-14T05:40:21;5.60;99.90
1800;DHT22;919;48.274;12.292;2023-12-14T05:42:48;5.60;99.90
1800;DHT22;919;48.274;12.292;2023-12-14T05:45:14;5.60;99.90
1800;DHT22;919;48.274;12.292;2023-12-14T05:47:41;5.60;99.90
1800;DHT22;919;48.274;12.292;2023-12-14T05:50:09;5.60;99.90
1800;DHT22;919;48.274;12.292;2023-12-14T05:52:36;5.60;99.90
1800;DHT22;919;48.274;12.292;2023-12-14T05:55:03;5.60;99.90
1800;DHT22;919;48.274;12.292;2023-12-14T05:57:30;5.70;99.90
1800;DHT22;919;48.274;12.292;2023-12-14T05:59:57;5.60;99.90
1800;DHT22;919;48.274;12.292;2023-12-14T06:02:23;5.60;99.90
1800;DHT22;919;48.274;12.292;2023-12-14T06:04:50;5.70;99.90
1800;DHT22;919;48.274;12.292;2023-12-14T06:07:18;5.60;99.90
1800;DHT22;919;48.274;12.292;2023-12-14T06:09:45;5.60;99.90
1800;DHT22;919;48.274;12.292;2023-12-14T06:12:11;5.60;99.90
1800;DHT22;919;48.274;12.292;2023-12-14T06:14:39;5.60;99.90
1800;DHT22;919;48.274;12.292;2023-12-14T06:17:06;5.60;99.90
1800;DHT22;919;48.274;12.292;2023-12-14T06:19:32;5.60;99.90
1800;DHT22;919;48.274;12.292;2023-12-14T06:21:59;5.60;99.90
1800;DHT22;919;48.274;12.292;2023-12-14T06:24:27;5.60;99.90
1800;DHT22;919;48.274;12.292;2023-12-14T06:26:54;5.60;99.90
1800;DHT22;919;48.274;12.292;2023-12-14T06:29:20;5.60;99.90
1800;DHT22;919;48.274;12.292;2023-12-14T06:31:47;5.60;99.90
1800;DHT22;919;48.274;12.292;2023-12-14T06:34:14;5.60;99.90
1800;DHT22;919;48.274;12.292;2023-12-14T06:36:42;5.70;99.90
1800;DHT22;919;48.274;12.292;2023-12-14T06:39:09;5.60;99.90
1800;DHT22;919;48.274;12.292;2023-12-14T06:41:38;5.60;99.90
1800;DHT22;919;48.274;12.292;2023-12-14T06:44:05;5.60;99.90
1800;DHT22;919;48.274;12.292;2023-12-14T06:46:34;5.60;99.90
1800;DHT22;919;48.274;12.292;2023-12-14T06:49:01;5.60;99.90
1800;DHT22;919;48.274;12.292;2023-12-14T06:51:27;5.60;99.90
1800;DHT22;919;48.274;12.292;2023-12-14T06:53:54;5.70;99.90
1800;DHT22;919;48.274;12.292;2023-12-14T06:56:21;5.60;99.90
1800;DHT22;919;48.274;12.292;2023-12-14T06:58:49;5.50;99.90
1800;DHT22;919;48.274;12.292;2023-12-14T07:01:16;5.60;99.90
1800;DHT22;919;48.274;12.292;2023-12-14T07:03:44;5.60;99.90
1800;DHT22;919;48.274;12.292;2023-12-14T07:06:12;5.60;99.90
1800;DHT22;919;48.274;12.292;2023-12-14T07:08:38;5.60;99.90
1800;DHT22;919;48.274;12.292;2023-12-14T07:11:06;5.50;99.90
1800;DHT22;919;48.274;12.292;2023-12-14T07:13:32;5.60;99.90
1800;DHT22;919;48.274;12.292;2023-12-14T07:16:03;5.50;99.90
1800;DHT22;919;48.274;12.292;2023-12-14T07:18:30;5.50;99.90
1800;DHT22;919;48.274;12.292;2023-12-14T07:20:57;5.50;99.90
1800;DHT22;919;48.274;12.292;2023-12-14T07:23:23;5.50;99.90
1800;DHT22;919;48.274;12.292;2023-12-14T07:25:50;5.50;99.90
1800;DHT22;919;48.274;12.292;2023-12-14T07:28:17;5.50;99.90
1800;DHT22;919;48.274;12.292;2023-12-14T07:30:45;5.50;99.90
1800;DHT22;919;48.274;12.292;2023-12-14T07:33:13;5.50;99.90
1800;DHT22;919;48.274;12.292;2023-12-14T07:35:40;5.50;99.90
1800;DHT22;919;48.274;12.292;2023-12-14T07:38:07;5.50;99.90
1800;DHT22;919;48.274;12.292;2023-12-14T07:40:33;5.60;99.90
1800;DHT22;919;48.274;12.292;2023-12-14T07:43:00;5.60;99.90
1800;DHT22;919;48.274;12.292;2023-12-14T07:45:27;5.60;99.90
1800;DHT22;919;48.274;12.292;2023-12-14T07:47:54;5.50;99.90
1800;DHT22;919;48.274;12.292;2023-12-14T07:50:25;5.50;99.90
1800;DHT22;919;48.274;12.292;2023-12-14T07:52:52;5.50;99.90
1800;DHT22;919;48.274;12.292;2023-12-14T07:55:19;5.50;99.90
1800;DHT22;919;48.274;12.292;2023-12-14T07:57:46;5.50;99.90
1800;DHT22;919;48.274;12.292;2023-12-14T08:00:15;5.50;99.90
1800;DHT22;919;48.274;12.292;2023-12-14T08:02:41;5.50;99.90
1800;DHT22;919;48.274;12.292;2023-12-14T08:05:08;5.50;99.90
1800;DHT22;919;48.274;12.292;2023-12-14T08:07:36;5.50;99.90
1800;DHT22;919;48.274;12.292;2023-12-14T08:10:04;5.40;99.90
1800;DHT22;919;48.274;12.292;2023-12-14T08:12:30;5.50;99.90
1800;DHT22;919;48.274;12.292;2023-12-14T08:14:58;5.50;99.90
1800;DHT22;919;48.274;12.292;2023-12-14T08:17:24;5.50;99.90
1800;DHT22;919;48.274;12.292;2023-12-14T08:19:53;5.50;99.90
1800;DHT22;919;48.274;12.292;2023-12-14T08:22:20;5.60;99.90
1800;DHT22;919;48.274;12.292;2023-12-14T08:24:48;5.60;99.90
1800;DHT22;919;48.274;12.292;2023-12-14T08:27:15;5.70;99.90
1800;DHT22;919;48.274;12.292;2023-12-14T08:29:41;5.70;99.90
1800;DHT22;919;48.274;12.292;2023-12-14T08:32:08;5.70;99.90
1800;DHT22;919;48.274;12.292;2023-12-14T08:34:35;5.70;99.90
1800;DHT22;919;48.274;12.292;2023-12-14T08:37:02;5.70;99.90
1800;DHT22;919;48.274;12.292;2023-12-14T08:39:28;5.70;99.90
1800;DHT22;919;48.274;12.292;2023-12-14T08:41:56;5.80;99.90
1800;DHT22;919;48.274;12.292;2023-12-14T08:44:23;5.80;99.90
1800;DHT22;919;48.274;12.292;2023-12-14T08:46:50;5.80;99.90
1800;DHT22;919;48.274;12.292;2023-12-14T08:49:16;5.90;99.90
1800;DHT22;919;48.274;12.292;2023-12-14T08:51:43;5.90;99.90
1800;DHT22;919;48.274;12.292;2023-12-14T08:54:10;5.90;99.90
1800;DHT22;919;48.274;12.292;2023-12-14T08:56:36;5.90;99.90
1800;DHT22;919;48.274;12.292;2023-12-14T08:59:04;6.00;99.90
1800;DHT22;919;48.274;12.292;2023-12-14T09:01:31;6.00;99.90
1800;DHT22;919;48.274;12.292;2023-12-14T09:03:58;6.10;99.90
1800;DHT22;919;48.274;12.292;2023-12-14T09:06:24;6.10;99.90
1800;DHT22;919;48.274;12.292;2023-12-14T09:08:51;6.10;99.90
1800;DHT22;919;48.274;12.292;2023-12-14T09:11:18;6.10;99.90
1800;DHT22;919;48.274;12.292;2023-12-14T09:13:44;6.10;99.90
1800;DHT22;919;48.274;12.292;2023-12-14T09:16:12;6.10;99.90
1800;DHT22;919;48.274;12.292;2023-12-14T09:18:39;6.20;99.90
1800;DHT22;919;48.274;12.292;2023-12-14T09:21:06;6.20;99.90
1800;DHT22;919;48.274;12.292;2023-12-14T09:23:33;6.10;99.90
1800;DHT22;919;48.274;12.292;2023-12-14T09:25:59;6.20;99.90
1800;DHT22;919;48.274;12.292;2023-12-14T09:28:26;6.10;99.90
1800;DHT22;919;48.274;12.292;2023-12-14T09:30:53;6.20;99.90
1800;DHT22;919;48.274;12.292;2023-12-14T09:33:21;6.20;99.90
1800;DHT22;919;48.274;12.292;2023-12-14T09:35:47;6.30;99.90
1800;DHT22;919;48.274;12.292;2023-12-14T09:38:14;6.30;99.90
1800;DHT22;919;48.274;12.292;2023-12-14T09:40:43;6.20;99.90
1800;DHT22;919;48.274;12.292;2023-12-14T09:43:10;6.30;99.90
1800;DHT22;919;48.274;12.292;2023-12-14T09:45:38;6.30;99.90
1800;DHT22;919;48.274;12.292;2023-12-14T09:48:10;6.40;99.90
1800;DHT22;919;48.274;12.292;2023-12-14T09:50:40;6.40;99.90
1800;DHT22;919;48.274;12.292;2023-12-14T09:53:06;6.50;99.90
1800;DHT22;919;48.274;12.292;2023-12-14T09:55:34;6.40;99.90
1800;DHT22;919;48.274;12.292;2023-12-14T09:58:00;6.40;99.90
1800;DHT22;919;48.274;12.292;2023-12-14T10:00:36;6.40;99.90
1800;DHT22;919;48.274;12.292;2023-12-14T10:03:18;6.40;99.90
1800;DHT22;919;48.274;12.292;2023-12-14T10:05:47;6.40;99.90
1800;DHT22;919;48.274;12.292;2023-12-14T10:08:14;6.40;99.90
1800;DHT22;919;48.274;12.292;2023-12-14T10:10:41;6.40;99.90
1800;DHT22;919;48.274;12.292;2023-12-14T10:13:08;6.40;99.90
1800;DHT22;919;48.274;12.292;2023-12-14T10:15:40;6.50;99.90
1800;DHT22;919;48.274;12.292;2023-12-14T10:18:08;6.50;99.90
1800;DHT22;919;48.274;12.292;2023-12-14T10:20:35;6.60;99.90
1800;DHT22;919;48.274;12.292;2023-12-14T10:23:05;6.60;99.90
1800;DHT22;919;48.274;12.292;2023-12-14T10:25:31;6.70;99.90
1800;DHT22;919;48.274;12.292;2023-12-14T10:27:58;6.60;99.90
1800;DHT22;919;48.274;12.292;2023-12-14T10:30:27;6.60;99.90
1800;DHT22;919;48.274;12.292;2023-12-14T10:32:54;6.60;99.90
1800;DHT22;919;48.274;12.292;2023-12-14T10:35:21;6.60;99.90
1800;DHT22;919;48.274;12.292;2023-12-14T10:37:51;6.70;99.90
1800;DHT22;919;48.274;12.292;2023-12-14T10:40:19;6.70;99.90
1800;DHT22;919;48.274;12.292;2023-12-14T10:42:47;6.70;99.90
1800;DHT22;919;48.274;12.292;2023-12-14T10:45:16;6.80;99.90
1800;DHT22;919;48.274;12.292;2023-12-14T10:47:46;6.80;99.90
1800;DHT22;919;48.274;12.292;2023-12-14T10:50:14;6.90;99.90
1800;DHT22;919;48.274;12.292;2023-12-14T10:52:41;7.00;99.90
1800;DHT22;919;48.274;12.292;2023-12-14T10:55:14;7.00;99.90
1800;DHT22;919;48.274;12.292;2023-12-14T10:57:43;7.00;99.90
1800;DHT22;919;48.274;12.292;2023-12-14T11:00:10;7.00;99.90
1800;DHT22;919;48.274;12.292;2023-12-14T11:02:40;7.00;99.90
1800;DHT22;919;48.274;12.292;2023-12-14T11:05:08;7.00;99.90
1800;DHT22;919;48.274;12.292;2023-12-14T11:07:47;6.90;99.90
1800;DHT22;919;48.274;12.292;2023-12-14T11:10:15;6.90;99.90
1800;DHT22;919;48.274;12.292;2023-12-14T11:12:55;6.90;99.90
1800;DHT22;919;48.274;12.292;2023-12-14T11:15:22;6.90;99.90
1800;DHT22;919;48.274;12.292;2023-12-14T11:18:20;7.00;99.90
1800;DHT22;919;48.274;12.292;2023-12-14T11:20:48;7.10;99.90
1800;DHT22;919;48.274;12.292;2023-12-14T11:23:17;7.20;99.90
1800;DHT22;919;48.274;12.292;2023-12-14T11:25:48;7.20;99.90
1800;DHT22;919;48.274;12.292;2023-12-14T11:28:16;7.20;99.90
1800;DHT22;919;48.274;12.292;2023-12-14T11:30:44;7.10;99.90
1800;DHT22;919;48.274;12.292;2023-12-14T11:33:11;7.00;99.90
1800;DHT22;919;48.274;12.292;2023-12-14T11:35:38;7.00;99.90
1800;DHT22;919;48.274;12.292;2023-12-14T11:38:06;7.00;99.90
1800;DHT22;919;48.274;12.292;2023-12-14T11:40:38;7.10;99.90
1800;DHT22;919;48.274;12.292;2023-12-14T11:43:08;7.10;99.90
1800;DHT22;919;48.274;12.292;2023-12-14T11:45:40;7.10;99.90
1800;DHT22;919;48.274;12.292;2023-12-14T11:48:08;7.10;99.90
1800;DHT22;919;48.274;12.292;2023-12-14T11:50:36;7.10;99.90
1800;DHT22;919;48.274;12.292;2023-12-14T11:53:03;7.20;99.90
1800;DHT22;919;48.274;12.292;2023-12-14T11:55:30;7.30;99.90
1800;DHT22;919;48.274;12.292;2023-12-14T11:57:57;7.30;99.90
1800;DHT22;919;48.274;12.292;2023-12-14T12:00:25;7.40;99.90
1800;DHT22;919;48.274;12.292;2023-12-14T12:03:07;7.40;99.90
1800;DHT22;919;48.274;12.292;2023-12-14T12:05:35;7.50;99.90
1800;DHT22;919;48.274;12.292;2023-12-14T12:08:02;7.50;99.90
1800;DHT22;919;48.274;12.292;2023-12-14T12:10:30;7.50;99.90
1800;DHT22;919;48.274;12.292;2023-12-14T12:13:01;7.50;99.90
1800;DHT22;919;48.274;12.292;2023-12-14T12:15:28;7.50;99.90
1800;DHT22;919;48.274;12.292;2023-12-14T12:17:56;7.40;99.90
1800;DHT22;919;48.274;12.292;2023-12-14T12:20:22;7.30;99.90
1800;DHT22;919;48.274;12.292;2023-12-14T12:22:51;7.10;99.90
1800;DHT22;919;48.274;12.292;2023-12-14T12:25:17;7.10;99.90
1800;DHT22;919;48.274;12.292;2023-12-14T12:27:44;6.90;99.90
1800;DHT22;919;48.274;12.292;2023-12-14T12:30:11;6.90;99.90
1800;DHT22;919;48.274;12.292;2023-12-14T12:32:38;6.90;99.90
1800;DHT22;919;48.274;12.292;2023-12-14T12:35:07;6.90;99.90
1800;DHT22;919;48.274;12.292;2023-12-14T12:37:33;7.00;99.90
1800;DHT22;919;48.274;12.292;2023-12-14T12:40:00;7.20;99.90
1800;DHT22;919;48.274;12.292;2023-12-14T12:42:27;7.40;99.90
1800;DHT22;919;48.274;12.292;2023-12-14T12:44:55;7.60;99.90
1800;DHT22;919;48.274;12.292;2023-12-14T12:47:21;7.60;99.90
1800;DHT22;919;48.274;12.292;2023-12-14T12:49:48;7.70;99.90
1800;DHT22;919;48.274;12.292;2023-12-14T12:52:16;7.80;99.90
1800;DHT22;919;48.274;12.292;2023-12-14T12:54:43;7.80;99.90
1800;DHT22;919;48.274;12.292;2023-12-14T12:57:10;7.80;99.90
1800;DHT22;919;48.274;12.292;2023-12-14T12:59:36;7.80;99.90
1800;DHT22;919;48.274;12.292;2023-12-14T13:02:04;7.80;99.90
1800;DHT22;919;48.274;12.292;2023-12-14T13:04:30;7.80;99.90
1800;DHT22;919;48.274;12.292;2023-12-14T13:06:57;7.70;99.90
1800;DHT22;919;48.274;12.292;2023-12-14T13:09:28;7.60;99.90
1800;DHT22;919;48.274;12.292;2023-12-14T13:11:55;7.60;99.90
1800;DHT22;919;48.274;12.292;2023-12-14T13:14:22;7.50;99.90
1800;DHT22;919;48.274;12.292;2023-12-14T13:16:48;7.50;99.90
1800;DHT22;919;48.274;12.292;2023-12-14T13:19:15;7.50;99.90
1800;DHT22;919;48.274;12.292;2023-12-14T13:21:42;7.60;99.90
1800;DHT22;919;48.274;12.292;2023-12-14T13:24:08;7.60;99.90
1800;DHT22;919;48.274;12.292;2023-12-14T13:26:36;7.80;99.90
1800;DHT22;919;48.274;12.292;2023-12-14T13:29:02;8.00;99.90
1800;DHT22;919;48.274;12.292;2023-12-14T13:31:29;8.10;99.90
1800;DHT22;919;48.274;12.292;2023-12-14T13:33:56;8.10;99.90
1800;DHT22;919;48.274;12.292;2023-12-14T13:36:22;7.90;99.90
1800;DHT22;919;48.274;12.292;2023-12-14T13:38:49;7.80;99.90
1800;DHT22;919;48.274;12.292;2023-12-14T13:41:16;7.70;99.90
1800;DHT22;919;48.274;12.292;2023-12-14T13:43:43;7.60;99.90
1800;DHT22;919;48.274;12.292;2023-12-14T13:46:11;7.50;99.90
1800;DHT22;919;48.274;12.292;2023-12-14T13:48:38;7.40;99.90
1800;DHT22;919;48.274;12.292;2023-12-14T13:51:05;7.50;99.90
1800;DHT22;919;48.274;12.292;2023-12-14T13:53:33;7.70;99.90
1800;DHT22;919;48.274;12.292;2023-12-14T13:55:59;7.80;99.90
1800;DHT22;919;48.274;12.292;2023-12-14T13:58:26;8.00;99.90
1800;DHT22;919;48.274;12.292;2023-12-14T14:00:54;8.10;99.90
1800;DHT22;919;48.274;12.292;2023-12-14T14:03:21;8.10;99.90
1800;DHT22;919;48.274;12.292;2023-12-14T14:05:48;8.00;99.90
1800;DHT22;919;48.274;12.292;2023-12-14T14:08:14;7.90;99.90
1800;DHT22;919;48.274;12.292;2023-12-14T14:10:41;7.80;99.90
1800;DHT22;919;48.274;12.292;2023-12-14T14:13:08;7.70;99.90
1800;DHT22;919;48.274;12.292;2023-12-14T14:15:34;7.60;99.90
1800;DHT22;919;48.274;12.292;2023-12-14T14:18:02;7.70;99.90
1800;DHT22;919;48.274;12.292;2023-12-14T14:20:29;7.60;99.90
1800;DHT22;919;48.274;12.292;2023-12-14T14:22:56;7.50;99.90
1800;DHT22;919;48.274;12.292;2023-12-14T14:25:24;7.40;99.90
1800;DHT22;919;48.274;12.292;2023-12-14T14:27:51;7.20;99.90
1800;DHT22;919;48.274;12.292;2023-12-14T14:30:18;7.20;99.90
1800;DHT22;919;48.274;12.292;2023-12-14T14:32:44;7.10;99.90
1800;DHT22;919;48.274;12.292;2023-12-14T14:35:13;7.00;99.90
1800;DHT22;919;48.274;12.292;2023-12-14T14:37:40;7.10;99.90
1800;DHT22;919;48.274;12.292;2023-12-14T14:40:11;7.00;99.90
1800;DHT22;919;48.274;12.292;2023-12-14T14:42:38;7.10;99.90
1800;DHT22;919;48.274;12.292;2023-12-14T14:45:06;7.00;99.90
1800;DHT22;919;48.274;12.292;2023-12-14T14:47:33;7.00;99.90
1800;DHT22;919;48.274;12.292;2023-12-14T14:50:00;7.00;99.90
1800;DHT22;919;48.274;12.292;2023-12-14T14:52:30;6.90;99.90
1800;DHT22;919;48.274;12.292;2023-12-14T14:54:57;6.80;99.90
1800;DHT22;919;48.274;12.292;2023-12-14T14:57:24;6.90;99.90
1800;DHT22;919;48.274;12.292;2023-12-14T14:59:51;6.90;99.90
1800;DHT22;919;48.274;12.292;2023-12-14T15:02:18;6.90;99.90
1800;DHT22;919;48.274;12.292;2023-12-14T15:04:45;6.80;99.90
1800;DHT22;919;48.274;12.292;2023-12-14T15:07:12;6.80;99.90
1800;DHT22;919;48.274;12.292;2023-12-14T15:09:40;6.80;99.90
1800;DHT22;919;48.274;12.292;2023-12-14T15:12:07;6.70;99.90
1800;DHT22;919;48.274;12.292;2023-12-14T15:14:33;6.70;99.90
1800;DHT22;919;48.274;12.292;2023-12-14T15:17:00;6.70;99.90
1800;DHT22;919;48.274;12.292;2023-12-14T15:19:27;6.60;99.90
1800;DHT22;919;48.274;12.292;2023-12-14T15:21:53;6.50;99.90
1800;DHT22;919;48.274;12.292;2023-12-14T15:24:20;6.50;99.90
1800;DHT22;919;48.274;12.292;2023-12-14T15:26:49;6.40;99.90
1800;DHT22;919;48.274;12.292;2023-12-14T15:29:15;6.50;99.90
1800;DHT22;919;48.274;12.292;2023-12-14T15:31:42;6.50;99.90
1800;DHT22;919;48.274;12.292;2023-12-14T15:34:09;6.40;99.90
1800;DHT22;919;48.274;12.292;2023-12-14T15:36:36;6.30;99.90
1800;DHT22;919;48.274;12.292;2023-12-14T15:39:02;6.30;99.90
1800;DHT22;919;48.274;12.292;2023-12-14T15:41:30;6.20;99.90
1800;DHT22;919;48.274;12.292;2023-12-14T15:43:58;6.20;99.90
1800;DHT22;919;48.274;12.292;2023-12-14T15:46:24;6.10;99.90
1800;DHT22;919;48.274;12.292;2023-12-14T15:48:51;6.00;99.90
1800;DHT22;919;48.274;12.292;2023-12-14T15:51:18;6.10;99.90
1800;DHT22;919;48.274;12.292;2023-12-14T15:53:44;6.00;99.90
1800;DHT22;919;48.274;12.292;2023-12-14T15:56:11;6.00;99.90
1800;DHT22;919;48.274;12.292;2023-12-14T15:58:38;5.90;99.90
1800;DHT22;919;48.274;12.292;2023-12-14T16:01:06;5.90;99.90
1800;DHT22;919;48.274;12.292;2023-12-14T16:03:33;5.90;99.90
1800;DHT22;919;48.274;12.292;2023-12-14T16:06:00;5.90;99.90
1800;DHT22;919;48.274;12.292;2023-12-14T16:08:26;5.90;99.90
1800;DHT22;919;48.274;12.292;2023-12-14T16:10:53;5.90;99.90
1800;DHT22;919;48.274;12.292;2023-12-14T16:13:20;5.90;99.90
1800;DHT22;919;48.274;12.292;2023-12-14T16:15:47;5.90;99.90
1800;DHT22;919;48.274;12.292;2023-12-14T16:18:15;5.90;99.90